Time;durP1;ratioP1;P1;durP2;ratioP2;P2;SDS_P1;SDS_P2;PMS_P1;PMS_P2;Temp;Humidity;BMP_temperature;BMP_pressure;BME280_temperature;BME280_humidity;BME280_pressure;Samples;Min_cycle;Max_cycle;Signal;HPM_P1;HPM_P2
2023/06/01 00:00:55;;;;;;;4.83;4.33;;;;;;;;;;5049037;28;20211;-75
2023/06/01 00:03:22;;;;;;;5.77;4.10;;;;;;;;;;5048790;28;20227;-75
2023/06/01 00:05:49;;;;;;;5.07;4.17;;;;;;;;;;5048500;28;20645;-75
2023/06/01 00:08:16;;;;;;;4.60;4.20;;;;;;;;;;5048427;28;20205;-75
2023/06/01 00:10:44;;;;;;;4.87;4.47;;;;;;;;;;5048774;28;20210;-75
2023/06/01 00:13:11;;;;;;;8.93;4.70;;;;;;;;;;5048134;28;20279;-75
2023/06/01 00:15:38;;;;;;;5.83;4.07;;;;;;;;;;5048534;28;21067;-75
2023/06/01 00:18:05;;;;;;;9.17;3.97;;;;;;;;;;5048411;28;20209;-75
2023/06/01 00:20:32;;;;;;;7.53;5.30;;;;;;;;;;5049064;28;20296;-75
2023/06/01 00:22:59;;;;;;;7.63;4.33;;;;;;;;;;5048540;28;20262;-75
2023/06/01 00:25:26;;;;;;;4.47;3.63;;;;;;;;;;5048838;28;20759;-75
2023/06/01 00:27:55;;;;;;;6.27;3.70;;;;;;;;;;5047728;28;20254;-75
2023/06/01 00:30:22;;;;;;;6.03;4.57;;;;;;;;;;5048363;28;20202;-75
2023/06/01 00:32:49;;;;;;;6.47;4.00;;;;;;;;;;5047702;28;20274;-75
2023/06/01 00:35:15;;;;;;;5.00;4.50;;;;;;;;;;5048302;28;20258;-75
2023/06/01 00:37:42;;;;;;;6.43;4.47;;;;;;;;;;5048039;28;20203;-75
2023/06/01 00:40:10;;;;;;;7.20;4.43;;;;;;;;;;5048320;28;20200;-75
2023/06/01 00:42:37;;;;;;;5.07;4.13;;;;;;;;;;5048221;28;20205;-75
2023/06/01 00:45:06;;;;;;;4.60;4.10;;;;;;;;;;5048659;28;20211;-75
2023/06/01 00:47:39;;;;;;;6.73;4.30;;;;;;;;;;5021994;28;20243;-75
2023/06/01 00:50:07;;;;;;;6.73;3.53;;;;;;;;;;5048094;28;20205;-75
2023/06/01 00:52:34;;;;;;;6.77;4.53;;;;;;;;;;5047377;28;20255;-75
2023/06/01 00:55:00;;;;;;;5.70;4.60;;;;;;;;;;5047679;28;20287;-75
2023/06/01 00:57:27;;;;;;;8.77;4.60;;;;;;;;;;5047944;28;20206;-75
2023/06/01 00:59:54;;;;;;;5.83;4.47;;;;;;;;;;5048201;28;20202;-75
2023/06/01 01:02:23;;;;;;;5.33;4.30;;;;;;;;;;5047802;28;20202;-75
2023/06/01 01:04:52;;;;;;;6.60;4.33;;;;;;;;;;5047300;28;20203;-75
2023/06/01 01:07:26;;;;;;;4.80;4.40;;;;;;;;;;5048000;28;20222;-75
2023/06/01 01:09:57;;;;;;;6.47;4.40;;;;;;;;;;5047990;28;20207;-75
2023/06/01 01:12:28;;;;;;;7.33;4.17;;;;;;;;;;5047530;28;20206;-75
2023/06/01 01:14:59;;;;;;;8.97;4.77;;;;;;;;;;5048093;28;20253;-75
2023/06/01 01:17:33;;;;;;;7.70;4.63;;;;;;;;;;5047031;28;20206;-75
2023/06/01 01:20:08;;;;;;;8.03;4.10;;;;;;;;;;5048383;28;20206;-75
2023/06/01 01:23:05;;;;;;;4.93;4.30;;;;;;;;;;5047608;28;20228;-75
2023/06/01 01:26:07;;;;;;;8.33;4.17;;;;;;;;;;5047713;28;20266;-75
2023/06/01 01:28:40;;;;;;;5.87;3.93;;;;;;;;;;5030410;28;20215;-76
2023/06/01 01:31:10;;;;;;;8.30;4.87;;;;;;;;;;5047730;28;20662;-75
2023/06/01 01:33:37;;;;;;;4.80;3.60;;;;;;;;;;5047421;28;20202;-75
2023/06/01 01:36:05;;;;;;;6.33;4.37;;;;;;;;;;5046804;28;20218;-76
2023/06/01 01:38:34;;;;;;;4.30;3.90;;;;;;;;;;5047834;28;20198;-75
2023/06/01 01:41:01;;;;;;;6.07;4.47;;;;;;;;;;5048030;28;20210;-75
2023/06/01 01:43:28;;;;;;;6.63;4.63;;;;;;;;;;5047439;28;20229;-75
2023/06/01 01:46:02;;;;;;;4.37;3.97;;;;;;;;;;5047236;28;20681;-75
2023/06/01 01:48:34;;;;;;;4.53;4.13;;;;;;;;;;5047298;28;20226;-75
2023/06/01 01:51:05;;;;;;;4.37;3.90;;;;;;;;;;5047971;28;20352;-75
2023/06/01 01:53:32;;;;;;;5.27;4.30;;;;;;;;;;5033772;28;20202;-75
2023/06/01 01:55:59;;;;;;;8.47;4.37;;;;;;;;;;5047547;28;20202;-75
2023/06/01 01:58:27;;;;;;;6.47;4.30;;;;;;;;;;5046990;28;20285;-75
2023/06/01 02:00:54;;;;;;;10.93;5.03;;;;;;;;;;5046903;28;20209;-75
2023/06/01 02:03:22;;;;;;;5.73;4.73;;;;;;;;;;5048195;28;20676;-75
2023/06/01 02:05:49;;;;;;;5.87;5.30;;;;;;;;;;5050766;28;20198;-74
2023/06/01 02:08:16;;;;;;;10.60;4.53;;;;;;;;;;5050121;28;20319;-75
2023/06/01 02:10:42;;;;;;;4.80;4.27;;;;;;;;;;5050487;28;20269;-75
2023/06/01 02:13:09;;;;;;;5.23;4.73;;;;;;;;;;5049913;28;20202;-75
2023/06/01 02:15:36;;;;;;;5.53;4.00;;;;;;;;;;5050840;28;20235;-75
2023/06/01 02:18:05;;;;;;;5.33;3.57;;;;;;;;;;5046294;28;20260;-74
2023/06/01 02:20:33;;;;;;;5.10;4.70;;;;;;;;;;5042645;28;20218;-75
2023/06/01 02:23:00;;;;;;;4.33;3.93;;;;;;;;;;5050199;28;20234;-75
2023/06/01 02:25:27;;;;;;;5.97;4.57;;;;;;;;;;5050233;28;20202;-75
2023/06/01 02:27:53;;;;;;;5.53;4.00;;;;;;;;;;5036687;28;20262;-75
2023/06/01 02:30:20;;;;;;;4.57;3.73;;;;;;;;;;5050579;28;20202;-75
2023/06/01 02:32:48;;;;;;;5.97;4.80;;;;;;;;;;5050538;28;20198;-75
2023/06/01 02:35:15;;;;;;;4.90;4.40;;;;;;;;;;5037646;28;20252;-75
2023/06/01 02:37:43;;;;;;;5.17;4.33;;;;;;;;;;5037045;28;20204;-75
2023/06/01 02:40:11;;;;;;;6.37;3.60;;;;;;;;;;5050269;28;20255;-75
2023/06/01 02:42:38;;;;;;;9.03;4.13;;;;;;;;;;5050458;28;20281;-75
2023/06/01 02:45:06;;;;;;;4.37;3.97;;;;;;;;;;5049486;28;20202;-75
2023/06/01 02:47:32;;;;;;;5.77;4.13;;;;;;;;;;5049769;28;20233;-74
2023/06/01 02:49:59;;;;;;;4.70;4.30;;;;;;;;;;5049974;28;20216;-75
2023/06/01 02:52:27;;;;;;;4.53;4.07;;;;;;;;;;5049440;28;20266;-75
2023/06/01 02:54:55;;;;;;;5.30;4.77;;;;;;;;;;5049631;28;20289;-75
2023/06/01 02:57:23;;;;;;;5.80;4.40;;;;;;;;;;5049703;28;20205;-75
2023/06/01 02:59:50;;;;;;;4.57;3.70;;;;;;;;;;5050129;28;20202;-75
2023/06/01 03:02:17;;;;;;;6.60;3.97;;;;;;;;;;5049723;28;20201;-75
2023/06/01 03:04:45;;;;;;;4.37;3.80;;;;;;;;;;5049487;28;20206;-75
2023/06/01 03:07:12;;;;;;;4.47;3.63;;;;;;;;;;5049621;28;20283;-75
2023/06/01 03:09:39;;;;;;;4.50;4.10;;;;;;;;;;5049106;28;20210;-75
2023/06/01 03:12:08;;;;;;;5.43;4.00;;;;;;;;;;5049830;28;20209;-75
2023/06/01 03:14:34;;;;;;;4.37;4.07;;;;;;;;;;5049500;28;20210;-75
2023/06/01 03:17:01;;;;;;;5.83;5.10;;;;;;;;;;5032297;28;20214;-75
2023/06/01 03:19:28;;;;;;;5.63;4.73;;;;;;;;;;5038563;28;20207;-75
2023/06/01 03:21:55;;;;;;;5.80;4.60;;;;;;;;;;5049614;28;20202;-75
2023/06/01 03:24:25;;;;;;;5.37;4.43;;;;;;;;;;5049844;28;20198;-75
2023/06/01 03:26:52;;;;;;;4.90;4.37;;;;;;;;;;5049143;28;20233;-75
2023/06/01 03:29:21;;;;;;;5.33;4.23;;;;;;;;;;5050251;28;20213;-75
2023/06/01 03:31:48;;;;;;;5.10;4.70;;;;;;;;;;5049174;28;20206;-75
2023/06/01 03:34:14;;;;;;;4.53;4.13;;;;;;;;;;5044853;28;20205;-75
2023/06/01 03:36:41;;;;;;;6.67;4.60;;;;;;;;;;5035797;28;20198;-75
2023/06/01 03:39:08;;;;;;;5.27;4.30;;;;;;;;;;5049383;28;20209;-75
2023/06/01 03:41:35;;;;;;;6.27;4.57;;;;;;;;;;5048915;28;20231;-75
2023/06/01 03:44:02;;;;;;;4.93;4.37;;;;;;;;;;5022557;28;20227;-75
2023/06/01 03:46:30;;;;;;;6.27;5.27;;;;;;;;;;5048930;28;20205;-76
2023/06/01 03:48:57;;;;;;;4.53;4.13;;;;;;;;;;5032520;28;20241;-75
2023/06/01 03:51:25;;;;;;;7.00;4.37;;;;;;;;;;5036619;28;20209;-77
2023/06/01 03:53:52;;;;;;;4.33;4.03;;;;;;;;;;5048433;28;20626;-75
2023/06/01 03:56:20;;;;;;;6.40;3.70;;;;;;;;;;5049542;28;20205;-76
2023/06/01 03:58:47;;;;;;;4.43;3.73;;;;;;;;;;5048834;28;20198;-75
2023/06/01 04:01:16;;;;;;;5.00;4.00;;;;;;;;;;5040698;28;20217;-76
2023/06/01 04:03:44;;;;;;;4.50;3.93;;;;;;;;;;5043779;28;20242;-76
2023/06/01 04:06:13;;;;;;;5.03;4.13;;;;;;;;;;5048851;28;20554;-75
2023/06/01 04:08:47;;;;;;;6.50;4.47;;;;;;;;;;5048708;28;20229;-76
2023/06/01 04:11:14;;;;;;;5.50;3.80;;;;;;;;;;5032116;28;20203;-75
2023/06/01 04:13:40;;;;;;;5.57;4.50;;;;;;;;;;5033713;28;20210;-76
2023/06/01 04:16:07;;;;;;;5.77;4.17;;;;;;;;;;5048607;28;20202;-76
2023/06/01 04:18:35;;;;;;;4.67;4.03;;;;;;;;;;5048337;28;20206;-75
2023/06/01 04:21:06;;;;;;;4.30;3.90;;;;;;;;;;5048484;28;20213;-76
2023/06/01 04:23:33;;;;;;;4.77;3.90;;;;;;;;;;5048674;28;20373;-76
2023/06/01 04:26:02;;;;;;;3.90;3.60;;;;;;;;;;5047343;28;20198;-76
2023/06/01 04:28:29;;;;;;;8.63;3.90;;;;;;;;;;5048454;28;20233;-76
2023/06/01 04:30:56;;;;;;;8.70;4.37;;;;;;;;;;5048018;28;20198;-76
2023/06/01 04:33:24;;;;;;;3.97;3.57;;;;;;;;;;5047972;28;20757;-76
2023/06/01 04:35:52;;;;;;;4.63;4.23;;;;;;;;;;5038529;28;20203;-76
2023/06/01 04:38:21;;;;;;;4.90;3.50;;;;;;;;;;5043196;28;20214;-76
2023/06/01 04:40:48;;;;;;;4.70;3.87;;;;;;;;;;5039371;28;20299;-76
2023/06/01 04:43:18;;;;;;;4.43;3.93;;;;;;;;;;5042532;28;20285;-77
2023/06/01 04:45:46;;;;;;;7.83;3.97;;;;;;;;;;5047853;28;20286;-77
2023/06/01 04:48:16;;;;;;;5.40;3.70;;;;;;;;;;5047964;28;20241;-76
2023/06/01 04:50:44;;;;;;;4.20;3.57;;;;;;;;;;5048655;28;20198;-76
2023/06/01 04:53:11;;;;;;;3.87;3.47;;;;;;;;;;5047372;28;20205;-76
2023/06/01 04:55:39;;;;;;;4.27;3.40;;;;;;;;;;5048559;28;20206;-76
2023/06/01 04:58:06;;;;;;;4.70;3.90;;;;;;;;;;5047667;28;20203;-76
2023/06/01 05:00:32;;;;;;;6.37;4.87;;;;;;;;;;5047669;28;20701;-76
2023/06/01 05:03:00;;;;;;;5.33;4.07;;;;;;;;;;5048438;28;20261;-76
2023/06/01 05:05:27;;;;;;;8.03;3.93;;;;;;;;;;5047997;28;20597;-76
2023/06/01 05:07:53;;;;;;;7.37;5.47;;;;;;;;;;5033808;28;20271;-76
2023/06/01 05:10:20;;;;;;;5.23;4.73;;;;;;;;;;5048131;28;20211;-76
2023/06/01 05:12:48;;;;;;;5.17;4.67;;;;;;;;;;5047934;28;20195;-76
2023/06/01 05:15:16;;;;;;;4.87;4.47;;;;;;;;;;5048201;28;20212;-76
2023/06/01 05:17:42;;;;;;;7.00;3.80;;;;;;;;;;5047834;28;20291;-76
2023/06/01 05:20:11;;;;;;;4.10;3.70;;;;;;;;;;5048195;28;20258;-75
2023/06/01 05:22:37;;;;;;;4.77;3.47;;;;;;;;;;5047429;28;20246;-76
2023/06/01 05:25:05;;;;;;;4.07;3.33;;;;;;;;;;5047759;28;20211;-76
2023/06/01 05:27:32;;;;;;;4.90;3.80;;;;;;;;;;5047401;28;20780;-76
2023/06/01 05:30:00;;;;;;;3.77;3.43;;;;;;;;;;5047934;28;20264;-76
2023/06/01 05:32:27;;;;;;;4.20;3.80;;;;;;;;;;5047362;28;20670;-76
2023/06/01 05:34:54;;;;;;;8.10;3.80;;;;;;;;;;5047776;28;20694;-76
2023/06/01 05:37:20;;;;;;;4.20;3.80;;;;;;;;;;5047363;28;20266;-76
2023/06/01 05:39:47;;;;;;;6.50;3.40;;;;;;;;;;5047785;28;20208;-76
2023/06/01 05:42:14;;;;;;;5.53;3.53;;;;;;;;;;5047584;28;20204;-76
2023/06/01 05:44:41;;;;;;;5.97;3.97;;;;;;;;;;5047470;28;20205;-76
2023/06/01 05:47:09;;;;;;;5.37;4.00;;;;;;;;;;5047195;28;20619;-76
2023/06/01 05:49:36;;;;;;;4.23;3.83;;;;;;;;;;5110827;28;20648;-76
2023/06/01 05:52:05;;;;;;;4.63;3.90;;;;;;;;;;5110951;28;20213;-76
2023/06/01 05:54:32;;;;;;;3.47;3.17;;;;;;;;;;5111374;28;20204;-76
2023/06/01 05:56:59;;;;;;;5.33;3.90;;;;;;;;;;5110665;28;20204;-76
2023/06/01 05:59:25;;;;;;;4.03;3.63;;;;;;;;;;5110852;28;20208;-76
2023/06/01 06:01:52;;;;;;;3.93;3.63;;;;;;;;;;5109451;28;20215;-76
2023/06/01 06:04:21;;;;;;;4.07;3.37;;;;;;;;;;5111186;28;20286;-76
2023/06/01 06:06:48;;;;;;;4.47;3.77;;;;;;;;;;5110277;28;20682;-76
2023/06/01 06:09:15;;;;;;;4.87;3.80;;;;;;;;;;5110554;28;20651;-76
2023/06/01 06:11:43;;;;;;;3.63;3.33;;;;;;;;;;5110450;28;20199;-76
2023/06/01 06:14:11;;;;;;;4.40;3.73;;;;;;;;;;5111320;28;20207;-77
2023/06/01 06:16:38;;;;;;;6.40;3.33;;;;;;;;;;5111058;28;20252;-76
2023/06/01 06:19:05;;;;;;;7.27;3.87;;;;;;;;;;5110984;28;20199;-76
2023/06/01 06:21:33;;;;;;;4.17;3.23;;;;;;;;;;5110359;28;20569;-76
2023/06/01 06:24:00;;;;;;;6.87;3.77;;;;;;;;;;5110349;28;20200;-76
2023/06/01 06:26:27;;;;;;;5.40;3.93;;;;;;;;;;5084385;28;20200;-76
2023/06/01 06:28:53;;;;;;;4.17;3.80;;;;;;;;;;5110671;28;20257;-76
2023/06/01 06:31:21;;;;;;;4.50;4.10;;;;;;;;;;5110687;28;20192;-75
2023/06/01 06:33:48;;;;;;;6.47;3.67;;;;;;;;;;5110237;28;20757;-76
2023/06/01 06:36:15;;;;;;;7.33;3.53;;;;;;;;;;5110639;28;20701;-76
2023/06/01 06:38:43;;;;;;;3.73;3.43;;;;;;;;;;5109459;28;20269;-76
2023/06/01 06:41:10;;;;;;;3.53;3.23;;;;;;;;;;5110683;28;20198;-76
2023/06/01 06:43:37;;;;;;;6.80;3.77;;;;;;;;;;5110357;28;20286;-76
2023/06/01 06:46:04;;;;;;;5.63;3.67;;;;;;;;;;5110329;28;20264;-76
2023/06/01 06:48:30;;;;;;;4.63;3.50;;;;;;;;;;5074072;28;20287;-75
2023/06/01 06:50:57;;;;;;;6.57;3.30;;;;;;;;;;5049806;28;20213;-76
2023/06/01 06:53:24;;;;;;;3.20;2.90;;;;;;;;;;5050040;28;20206;-77
2023/06/01 06:55:52;;;;;;;4.43;3.60;;;;;;;;;;5050121;28;20210;-76
2023/06/01 06:58:18;;;;;;;5.23;3.67;;;;;;;;;;5049868;28;20269;-76
2023/06/01 07:00:45;;;;;;;3.77;3.00;;;;;;;;;;5050085;28;20199;-76
2023/06/01 07:03:12;;;;;;;3.53;3.20;;;;;;;;;;5049713;28;20271;-76
2023/06/01 07:05:39;;;;;;;3.50;3.20;;;;;;;;;;5050430;28;20258;-76
2023/06/01 07:08:06;;;;;;;7.03;3.13;;;;;;;;;;5049844;28;20256;-76
2023/06/01 07:10:33;;;;;;;3.87;3.27;;;;;;;;;;5049641;28;20205;-75
2023/06/01 07:13:01;;;;;;;3.50;3.13;;;;;;;;;;5048923;28;20198;-76
2023/06/01 07:15:28;;;;;;;3.20;2.93;;;;;;;;;;5049755;28;20262;-76
2023/06/01 07:17:54;;;;;;;3.60;2.87;;;;;;;;;;5036484;28;20625;-77
2023/06/01 07:20:21;;;;;;;3.27;2.97;;;;;;;;;;5050072;28;20254;-76
2023/06/01 07:22:49;;;;;;;4.37;3.97;;;;;;;;;;5048920;28;20210;-76
2023/06/01 07:25:16;;;;;;;4.67;3.03;;;;;;;;;;5049762;28;20242;-76
2023/06/01 07:27:43;;;;;;;4.73;3.27;;;;;;;;;;5049306;28;21108;-76
2023/06/01 07:30:12;;;;;;;3.13;2.83;;;;;;;;;;5049810;28;20225;-76
2023/06/01 07:32:39;;;;;;;3.40;3.10;;;;;;;;;;5048092;28;20258;-76
2023/06/01 07:35:07;;;;;;;3.13;2.80;;;;;;;;;;5049875;28;20206;-76
2023/06/01 07:37:34;;;;;;;4.00;3.17;;;;;;;;;;5049430;28;20290;-76
2023/06/01 07:40:00;;;;;;;3.23;2.93;;;;;;;;;;5049755;28;20206;-76
2023/06/01 07:42:27;;;;;;;4.77;3.23;;;;;;;;;;5048721;28;20681;-76
2023/06/01 07:44:54;;;;;;;3.27;3.03;;;;;;;;;;5049539;28;20203;-77
2023/06/01 07:47:24;;;;;;;5.93;3.37;;;;;;;;;;5048913;28;20198;-76
2023/06/01 07:49:51;;;;;;;2.70;2.50;;;;;;;;;;5049478;28;20283;-76
2023/06/01 07:52:18;;;;;;;4.57;2.50;;;;;;;;;;5048494;28;20198;-76
2023/06/01 07:54:45;;;;;;;3.80;3.00;;;;;;;;;;5036605;28;20214;-76
2023/06/01 07:57:12;;;;;;;4.07;2.90;;;;;;;;;;5048535;28;20198;-76
2023/06/01 07:59:39;;;;;;;4.33;2.90;;;;;;;;;;5036148;28;20214;-76
2023/06/01 08:02:06;;;;;;;4.53;3.40;;;;;;;;;;5048781;28;20205;-76
2023/06/01 08:04:35;;;;;;;3.67;3.30;;;;;;;;;;5049214;28;20208;-76
2023/06/01 08:07:03;;;;;;;3.87;3.57;;;;;;;;;;5048658;28;20198;-76
2023/06/01 08:09:31;;;;;;;4.00;3.13;;;;;;;;;;5048729;28;20312;-76
2023/06/01 08:11:58;;;;;;;3.70;3.40;;;;;;;;;;5048720;28;20212;-76
2023/06/01 08:14:24;;;;;;;3.60;3.30;;;;;;;;;;5049079;28;20202;-76
2023/06/01 08:16:52;;;;;;;3.90;3.30;;;;;;;;;;5047542;28;20262;-76
2023/06/01 08:19:19;;;;;;;6.20;3.70;;;;;;;;;;5048087;28;20230;-76
2023/06/01 08:21:47;;;;;;;5.10;3.97;;;;;;;;;;5048767;28;20209;-76
2023/06/01 08:24:15;;;;;;;5.37;3.70;;;;;;;;;;5048707;28;20210;-76
2023/06/01 08:26:41;;;;;;;6.80;3.47;;;;;;;;;;5048462;28;20258;-76
2023/06/01 08:29:08;;;;;;;3.90;3.37;;;;;;;;;;5047693;28;20228;-76
2023/06/01 08:31:36;;;;;;;5.67;3.47;;;;;;;;;;5048891;28;20198;-76
2023/06/01 08:34:03;;;;;;;4.27;3.63;;;;;;;;;;5048308;28;20213;-76
2023/06/01 08:36:30;;;;;;;3.80;3.10;;;;;;;;;;5048569;28;20212;-76
2023/06/01 08:38:58;;;;;;;6.57;3.20;;;;;;;;;;5048178;28;20202;-76
2023/06/01 08:41:27;;;;;;;4.53;3.13;;;;;;;;;;5048742;28;20591;-76
2023/06/01 08:43:56;;;;;;;4.70;3.03;;;;;;;;;;5048790;28;20202;-77
2023/06/01 08:46:23;;;;;;;5.77;3.83;;;;;;;;;;5048340;28;20234;-76
2023/06/01 08:48:53;;;;;;;6.00;3.10;;;;;;;;;;5047511;28;20229;-76
2023/06/01 08:51:20;;;;;;;3.63;3.33;;;;;;;;;;5048576;28;20759;-76
2023/06/01 08:53:48;;;;;;;6.87;2.67;;;;;;;;;;5047851;28;20198;-76
2023/06/01 08:56:17;;;;;;;3.33;3.03;;;;;;;;;;5048474;28;20202;-76
2023/06/01 08:58:44;;;;;;;3.77;3.20;;;;;;;;;;5035314;28;20664;-76
2023/06/01 09:01:14;;;;;;;3.40;3.10;;;;;;;;;;5048233;28;20258;-76
2023/06/01 09:03:41;;;;;;;4.30;3.03;;;;;;;;;;5047641;28;20198;-76
2023/06/01 09:06:08;;;;;;;3.23;2.97;;;;;;;;;;5048279;28;20572;-75
2023/06/01 09:08:35;;;;;;;3.33;2.53;;;;;;;;;;5040615;28;20230;-75
2023/06/01 09:11:01;;;;;;;2.90;2.70;;;;;;;;;;5041822;28;20202;-76
2023/06/01 09:13:33;;;;;;;4.13;2.67;;;;;;;;;;5047411;28;20745;-76
2023/06/01 09:16:00;;;;;;;5.10;3.63;;;;;;;;;;5048130;28;20209;-76
2023/06/01 09:18:27;;;;;;;6.00;2.83;;;;;;;;;;5047496;28;20202;-75
2023/06/01 09:20:56;;;;;;;4.30;3.50;;;;;;;;;;5047414;28;20680;-76
2023/06/01 09:23:27;;;;;;;6.20;2.97;;;;;;;;;;5047794;28;20212;-75
2023/06/01 09:26:06;;;;;;;6.73;3.10;;;;;;;;;;5047780;28;20209;-76
2023/06/01 09:28:59;;;;;;;8.27;3.53;;;;;;;;;;5047870;28;20202;-76
2023/06/01 09:31:40;;;;;;;4.37;2.70;;;;;;;;;;5047827;28;20206;-76
2023/06/01 09:34:07;;;;;;;3.27;2.93;;;;;;;;;;5047628;28;20694;-76
2023/06/01 09:36:35;;;;;;;3.90;3.33;;;;;;;;;;5047022;28;20201;-76
2023/06/01 09:39:07;;;;;;;4.50;3.77;;;;;;;;;;5046789;28;20686;-76
2023/06/01 09:41:49;;;;;;;3.77;3.47;;;;;;;;;;5036790;28;20206;-75
2023/06/01 09:44:27;;;;;;;3.23;2.93;;;;;;;;;;5022921;28;20206;-75
2023/06/01 09:46:56;;;;;;;3.03;2.73;;;;;;;;;;5047523;28;20245;-77
2023/06/01 09:49:26;;;;;;;4.00;3.63;;;;;;;;;;5047882;28;20229;-75
2023/06/01 09:51:54;;;;;;;4.97;3.60;;;;;;;;;;5047323;28;20246;-76
2023/06/01 09:54:28;;;;;;;4.43;2.87;;;;;;;;;;5047532;28;20206;-76
2023/06/01 09:56:56;;;;;;;5.63;3.07;;;;;;;;;;5047359;28;20253;-76
2023/06/01 09:59:25;;;;;;;7.73;3.07;;;;;;;;;;5047921;28;20274;-75
2023/06/01 10:01:53;;;;;;;4.60;3.20;;;;;;;;;;5047008;28;20285;-76
2023/06/01 10:04:23;;;;;;;3.63;3.33;;;;;;;;;;5048017;28;20233;-76
2023/06/01 10:06:52;;;;;;;5.63;3.50;;;;;;;;;;5046805;28;20294;-75
2023/06/01 10:09:20;;;;;;;6.03;3.07;;;;;;;;;;5046931;28;20253;-77
2023/06/01 10:11:47;;;;;;;4.67;2.93;;;;;;;;;;5047161;28;20209;-75
2023/06/01 10:14:14;;;;;;;6.83;4.20;;;;;;;;;;5047103;28;20206;-76
2023/06/01 10:16:43;;;;;;;7.83;3.70;;;;;;;;;;5047334;28;20206;-75
2023/06/01 10:19:10;;;;;;;7.87;3.43;;;;;;;;;;5047015;28;20704;-76
2023/06/01 10:21:42;;;;;;;3.90;3.53;;;;;;;;;;5046481;28;20206;-76
2023/06/01 10:24:09;;;;;;;5.17;3.53;;;;;;;;;;5047847;28;20210;-75
2023/06/01 10:26:41;;;;;;;4.50;3.53;;;;;;;;;;5050254;28;20293;-75
2023/06/01 10:29:08;;;;;;;6.37;4.37;;;;;;;;;;5050436;28;21509;-75
2023/06/01 10:31:36;;;;;;;3.40;3.10;;;;;;;;;;5050322;28;20210;-76
2023/06/01 10:34:04;;;;;;;5.40;3.50;;;;;;;;;;5050840;28;20289;-75
2023/06/01 10:37:09;;;;;;;4.17;3.30;;;;;;;;;;5040063;28;20701;-76
2023/06/01 10:39:36;;;;;;;4.63;4.10;;;;;;;;;;5028768;28;20202;-76
2023/06/01 10:42:36;;;;;;;3.30;3.10;;;;;;;;;;5050283;28;20201;-75
2023/06/01 10:45:03;;;;;;;4.93;3.50;;;;;;;;;;5050043;28;20605;-76
2023/06/01 10:47:47;;;;;;;3.77;3.30;;;;;;;;;;5050213;28;20271;-76
2023/06/01 10:50:19;;;;;;;5.13;3.93;;;;;;;;;;5049947;28;20290;-76
2023/06/01 10:52:46;;;;;;;4.00;3.57;;;;;;;;;;5050129;28;20255;-76
2023/06/01 10:55:30;;;;;;;5.77;3.70;;;;;;;;;;5049795;28;20672;-76
2023/06/01 10:58:23;;;;;;;4.53;4.13;;;;;;;;;;5049812;28;20205;-76
2023/06/01 11:00:50;;;;;;;4.23;3.83;;;;;;;;;;5050271;28;20210;-76
2023/06/01 11:03:17;;;;;;;3.90;3.40;;;;;;;;;;5049472;28;20263;-75
2023/06/01 11:05:50;;;;;;;4.47;3.37;;;;;;;;;;5049958;28;20202;-76
2023/06/01 11:08:52;;;;;;;5.30;3.80;;;;;;;;;;5049312;28;20259;-76
2023/06/01 11:11:20;;;;;;;4.83;3.87;;;;;;;;;;5049319;28;20258;-76
2023/06/01 11:14:10;;;;;;;4.03;2.90;;;;;;;;;;5049475;28;20668;-76
2023/06/01 11:16:37;;;;;;;4.57;3.30;;;;;;;;;;5049267;28;20289;-76
2023/06/01 11:19:06;;;;;;;3.40;3.10;;;;;;;;;;5049624;28;20223;-76
2023/06/01 11:21:36;;;;;;;5.77;3.50;;;;;;;;;;5049944;28;20198;-76
2023/06/01 11:24:08;;;;;;;4.73;3.30;;;;;;;;;;5049293;28;20198;-76
2023/06/01 11:26:38;;;;;;;3.87;3.20;;;;;;;;;;5049217;28;20622;-76
2023/06/01 11:29:07;;;;;;;4.63;4.07;;;;;;;;;;5049013;28;20209;-76
2023/06/01 11:31:39;;;;;;;6.47;3.40;;;;;;;;;;5049146;28;20202;-76
2023/06/01 11:34:07;;;;;;;7.07;5.70;;;;;;;;;;5049079;28;20576;-76
2023/06/01 11:36:43;;;;;;;3.50;3.20;;;;;;;;;;5049042;28;20617;-76
2023/06/01 11:39:23;;;;;;;3.80;2.97;;;;;;;;;;5049545;28;20198;-76
2023/06/01 11:41:52;;;;;;;13.10;3.07;;;;;;;;;;5049440;28;20201;-76
2023/06/01 11:44:19;;;;;;;7.93;3.83;;;;;;;;;;5049340;28;20209;-76
2023/06/01 11:46:53;;;;;;;3.53;3.23;;;;;;;;;;5048845;28;20214;-76
2023/06/01 11:49:20;;;;;;;3.63;3.33;;;;;;;;;;5049390;28;20760;-76
2023/06/01 11:51:48;;;;;;;7.20;3.40;;;;;;;;;;5049198;28;20266;-76
2023/06/01 11:54:17;;;;;;;3.23;3.00;;;;;;;;;;5048931;28;20658;-76
2023/06/01 11:56:45;;;;;;;6.47;3.93;;;;;;;;;;5048699;28;20198;-76
2023/06/01 11:59:13;;;;;;;5.57;3.70;;;;;;;;;;5049269;28;20202;-76
2023/06/01 12:01:43;;;;;;;2.90;2.63;;;;;;;;;;5048229;28;20314;-76
2023/06/01 12:04:13;;;;;;;4.97;3.80;;;;;;;;;;5038477;28;20256;-75
2023/06/01 12:06:40;;;;;;;4.07;3.67;;;;;;;;;;5033578;28;20262;-75
2023/06/01 12:09:09;;;;;;;3.90;3.60;;;;;;;;;;5049114;28;20205;-75
2023/06/01 12:11:36;;;;;;;5.40;3.17;;;;;;;;;;5048542;28;20798;-75
2023/06/01 12:14:05;;;;;;;4.70;3.37;;;;;;;;;;5049101;28;20703;-75
2023/06/01 12:16:58;;;;;;;5.63;3.30;;;;;;;;;;5048113;28;22156;-75
2023/06/01 12:19:26;;;;;;;4.20;3.80;;;;;;;;;;5035631;28;20608;-75
2023/06/01 12:21:55;;;;;;;4.43;3.17;;;;;;;;;;5048751;28;20296;-75
2023/06/01 12:24:29;;;;;;;4.10;3.30;;;;;;;;;;5048834;28;20224;-75
2023/06/01 12:26:57;;;;;;;3.70;3.40;;;;;;;;;;5048302;28;20683;-75
2023/06/01 12:29:37;;;;;;;4.17;3.57;;;;;;;;;;5048824;28;20198;-75
2023/06/01 12:32:04;;;;;;;3.70;3.40;;;;;;;;;;5048670;28;20273;-75
2023/06/01 12:34:31;;;;;;;6.13;3.33;;;;;;;;;;5048672;28;20202;-75
2023/06/01 12:36:58;;;;;;;4.43;3.70;;;;;;;;;;5047871;28;20707;-76
2023/06/01 12:39:36;;;;;;;3.80;3.40;;;;;;;;;;5022919;28;20198;-75
2023/06/01 12:42:04;;;;;;;4.23;3.83;;;;;;;;;;5048220;28;20201;-76
2023/06/01 12:44:32;;;;;;;4.83;3.73;;;;;;;;;;5047912;28;20672;-75
2023/06/01 12:46:58;;;;;;;4.03;3.67;;;;;;;;;;5046667;28;20805;-76
2023/06/01 12:49:25;;;;;;;5.10;3.77;;;;;;;;;;5048398;28;20230;-75
2023/06/01 12:51:52;;;;;;;4.63;3.83;;;;;;;;;;5048117;28;20741;-75
2023/06/01 12:54:19;;;;;;;11.10;3.77;;;;;;;;;;5048363;28;20206;-75
2023/06/01 12:56:48;;;;;;;6.03;4.07;;;;;;;;;;5048124;28;20198;-75
2023/06/01 12:59:15;;;;;;;5.13;3.50;;;;;;;;;;5048306;28;20200;-75
2023/06/01 13:01:42;;;;;;;9.10;3.97;;;;;;;;;;5048422;28;20206;-75
2023/06/01 13:04:08;;;;;;;4.43;3.50;;;;;;;;;;5048090;28;20217;-75
2023/06/01 13:06:37;;;;;;;4.17;3.37;;;;;;;;;;5047733;28;20205;-75
2023/06/01 13:09:04;;;;;;;5.63;3.93;;;;;;;;;;5048291;28;20205;-75
2023/06/01 13:11:32;;;;;;;4.50;3.93;;;;;;;;;;5047615;28;20222;-76
2023/06/01 13:14:00;;;;;;;5.40;3.30;;;;;;;;;;5047952;28;20206;-75
2023/06/01 13:16:27;;;;;;;4.90;3.67;;;;;;;;;;5047789;28;20209;-76
2023/06/01 13:18:54;;;;;;;4.63;3.83;;;;;;;;;;5048222;28;20286;-75
2023/06/01 13:21:20;;;;;;;6.30;3.40;;;;;;;;;;5047944;28;20603;-75
2023/06/01 13:23:48;;;;;;;4.07;3.27;;;;;;;;;;5048033;28;20206;-75
2023/06/01 13:26:15;;;;;;;6.03;3.67;;;;;;;;;;5047122;28;20288;-75
2023/06/01 13:28:42;;;;;;;3.77;3.27;;;;;;;;;;5048164;28;20286;-75
2023/06/01 13:31:10;;;;;;;4.50;3.60;;;;;;;;;;5047716;28;20229;-75
2023/06/01 13:33:37;;;;;;;3.90;3.50;;;;;;;;;;5047312;28;20266;-75
2023/06/01 13:36:05;;;;;;;4.80;3.53;;;;;;;;;;5021865;28;20202;-75
2023/06/01 13:38:32;;;;;;;5.37;4.77;;;;;;;;;;5047291;28;20795;-76
2023/06/01 13:40:58;;;;;;;4.63;4.23;;;;;;;;;;5047518;28;20772;-75
2023/06/01 13:43:26;;;;;;;5.33;4.10;;;;;;;;;;5047073;28;20209;-75
2023/06/01 13:45:52;;;;;;;3.67;3.30;;;;;;;;;;5047455;28;20201;-75
2023/06/01 13:48:21;;;;;;;4.97;3.40;;;;;;;;;;5046757;28;20230;-75
2023/06/01 13:50:48;;;;;;;5.80;4.00;;;;;;;;;;5047577;28;20719;-75
2023/06/01 13:53:15;;;;;;;4.53;4.13;;;;;;;;;;5047371;28;20205;-75
2023/06/01 13:55:42;;;;;;;5.30;4.20;;;;;;;;;;5047628;28;20202;-75
2023/06/01 13:58:10;;;;;;;5.77;4.13;;;;;;;;;;5048241;28;20209;-75
2023/06/01 14:00:40;;;;;;;5.93;4.07;;;;;;;;;;5051093;28;20194;-75
2023/06/01 14:03:07;;;;;;;4.00;3.43;;;;;;;;;;5049794;28;20952;-75
2023/06/01 14:05:35;;;;;;;4.83;3.83;;;;;;;;;;5050887;28;20205;-75
2023/06/01 14:08:04;;;;;;;4.63;3.87;;;;;;;;;;5049483;28;20206;-76
2023/06/01 14:10:31;;;;;;;4.63;3.97;;;;;;;;;;5050851;28;20232;-75
2023/06/01 14:12:57;;;;;;;4.23;3.87;;;;;;;;;;5049794;28;20202;-76
2023/06/01 14:15:25;;;;;;;7.83;4.20;;;;;;;;;;5031269;28;20202;-75
2023/06/01 14:17:51;;;;;;;6.83;4.50;;;;;;;;;;5025766;28;20213;-75
2023/06/01 14:20:18;;;;;;;6.03;5.53;;;;;;;;;;5043253;28;20271;-75
2023/06/01 14:22:46;;;;;;;7.80;5.47;;;;;;;;;;5050633;28;20201;-75
2023/06/01 14:25:14;;;;;;;5.93;4.93;;;;;;;;;;5035330;28;20205;-76
2023/06/01 14:27:40;;;;;;;5.00;4.60;;;;;;;;;;5037262;28;20651;-76
2023/06/01 14:30:08;;;;;;;4.70;4.27;;;;;;;;;;5035833;28;20661;-75
2023/06/01 14:32:35;;;;;;;4.90;4.50;;;;;;;;;;5046868;28;20197;-75
2023/06/01 14:35:02;;;;;;;6.17;4.37;;;;;;;;;;5050169;28;20214;-76
2023/06/01 14:37:28;;;;;;;9.10;3.80;;;;;;;;;;5049605;28;20198;-75
2023/06/01 14:39:56;;;;;;;4.57;4.17;;;;;;;;;;5050037;28;20194;-75
2023/06/01 14:42:24;;;;;;;4.23;3.60;;;;;;;;;;5049249;28;20678;-74
2023/06/01 14:44:51;;;;;;;6.73;4.13;;;;;;;;;;5049182;28;20202;-75
2023/06/01 14:47:18;;;;;;;5.63;4.30;;;;;;;;;;5050212;28;20202;-75
2023/06/01 14:49:44;;;;;;;4.57;4.07;;;;;;;;;;5049746;28;20201;-76
2023/06/01 14:52:11;;;;;;;5.53;3.93;;;;;;;;;;5049312;28;20742;-75